createdAt,value
2017-12-11T00:04:12.604Z,4.32
2017-12-11T00:10:16.275Z,4.16
2017-12-11T00:16:20.691Z,3.95
2017-12-11T00:29:03.778Z,4.03
2017-12-11T00:35:07.326Z,4.15
2017-12-11T00:41:11.436Z,4.14
2017-12-11T00:47:15.828Z,4.07
2017-12-11T00:53:19.436Z,4.18
2017-12-11T00:59:23.043Z,4.11
2017-12-11T01:05:26.728Z,4.10
2017-12-11T01:11:30.416Z,4.10
2017-12-11T01:17:34.773Z,4.03
2017-12-11T01:23:38.361Z,4.04
2017-12-11T01:29:42.768Z,4.02
2017-12-11T01:35:46.374Z,3.95
2017-12-11T01:41:49.891Z,4.03
2017-12-11T01:47:53.703Z,4.06
2017-12-11T01:53:58.364Z,3.93
2017-12-11T02:00:01.996Z,3.94
2017-12-11T02:06:05.543Z,3.91
2017-12-11T02:12:09.088Z,3.98
2017-12-11T02:18:12.649Z,3.85
2017-12-11T02:24:16.269Z,3.93
2017-12-11T02:30:20.619Z,3.92
2017-12-11T02:36:24.251Z,3.89
2017-12-11T02:42:28.116Z,3.89
2017-12-11T02:48:31.868Z,3.79
2017-12-11T02:54:35.428Z,3.72
2017-12-11T03:00:39.879Z,3.63
2017-12-11T03:06:43.467Z,3.57
2017-12-11T03:12:47.120Z,3.52
2017-12-11T03:18:51.241Z,3.43
2017-12-11T03:24:55.981Z,3.28
2017-12-11T03:30:59.570Z,3.12
2017-12-11T03:37:03.187Z,3.07
2017-12-11T03:43:06.766Z,3.04
2017-12-11T03:49:10.526Z,2.95
2017-12-11T03:55:14.110Z,2.88
2017-12-11T04:01:17.697Z,2.77
2017-12-11T04:07:22.253Z,2.66
2017-12-11T04:13:26.275Z,2.56
2017-12-11T04:19:30.726Z,2.52
2017-12-11T04:25:34.288Z,2.43
2017-12-11T04:31:37.836Z,2.33
2017-12-11T04:37:41.422Z,2.28
2017-12-11T04:43:45.162Z,2.25
2017-12-11T04:49:48.711Z,2.29
2017-12-11T04:55:53.266Z,2.27
2017-12-11T05:01:56.966Z,2.25
2017-12-11T05:08:00.703Z,2.24
2017-12-11T05:14:04.304Z,2.18
2017-12-11T05:20:07.868Z,1.98
2017-12-11T05:26:12.338Z,1.78
2017-12-11T05:32:16.697Z,1.73
2017-12-11T05:38:20.620Z,1.74
2017-12-11T05:44:24.642Z,1.69
2017-12-11T05:50:28.581Z,1.68
2017-12-11T05:56:32.373Z,1.65
2017-12-11T06:02:36.687Z,1.55
2017-12-11T06:08:40.401Z,1.49
2017-12-11T06:14:44.006Z,1.54
2017-12-11T06:20:47.721Z,1.62
2017-12-11T06:26:51.605Z,1.63
2017-12-11T06:32:55.629Z,1.52
2017-12-11T06:39:00.190Z,1.37
2017-12-11T06:45:03.829Z,1.25
2017-12-11T06:51:07.443Z,1.06
2017-12-11T06:57:11.169Z,0.90
2017-12-11T07:03:14.778Z,0.77
2017-12-11T07:09:18.661Z,0.64
2017-12-11T07:15:22.594Z,0.68
2017-12-11T07:21:27.007Z,0.48
2017-12-11T07:27:30.603Z,0.44
2017-12-11T07:33:34.253Z,0.37
2017-12-11T07:39:37.818Z,0.41
2017-12-11T07:45:43.038Z,0.32
2017-12-11T07:51:46.987Z,0.56
2017-12-11T07:57:51.196Z,0.77
2017-12-11T08:03:55.028Z,0.55
2017-12-11T08:09:59.330Z,0.66
2017-12-11T08:16:02.927Z,0.81
2017-12-11T08:22:06.482Z,1.04
2017-12-11T08:28:10.018Z,1.20
2017-12-11T08:34:13.686Z,1.27
2017-12-11T08:40:17.245Z,1.35
2017-12-11T08:46:20.814Z,1.41
2017-12-11T08:52:24.864Z,1.47
2017-12-11T08:58:28.566Z,1.54
2017-12-11T09:04:33.032Z,1.65
2017-12-11T09:10:36.598Z,1.76
2017-12-11T09:16:40.935Z,1.85
2017-12-11T09:22:44.740Z,1.91
2017-12-11T09:28:49.041Z,1.92
2017-12-11T09:34:53.046Z,1.86
2017-12-11T09:40:56.789Z,1.95
2017-12-11T09:47:00.570Z,1.91
2017-12-11T09:53:04.951Z,2.04
2017-12-11T09:59:08.472Z,2.03
2017-12-11T10:05:12.036Z,1.96
2017-12-11T10:11:15.587Z,1.91
2017-12-11T10:17:19.131Z,1.92
2017-12-11T10:23:23.181Z,1.90
2017-12-11T10:29:26.804Z,1.92
2017-12-11T10:35:31.995Z,1.88
2017-12-11T10:41:36.324Z,1.95
2017-12-11T10:47:39.935Z,1.89
2017-12-11T10:53:44.416Z,1.86
2017-12-11T10:59:48.737Z,1.51
2017-12-11T11:05:52.488Z,1.58
2017-12-11T11:11:56.253Z,1.60
2017-12-11T11:17:59.791Z,1.66
2017-12-11T11:24:03.323Z,1.63
2017-12-11T11:30:06.859Z,1.58
2017-12-11T11:36:11.278Z,1.67
2017-12-11T11:42:14.831Z,1.67
2017-12-11T11:48:18.691Z,1.68
2017-12-11T11:54:22.219Z,1.73
2017-12-11T12:00:26.530Z,1.60
2017-12-11T12:06:30.059Z,1.59
2017-12-11T12:12:33.662Z,1.68
2017-12-11T12:18:37.211Z,1.70
2017-12-11T12:24:40.835Z,1.64
2017-12-11T12:30:44.382Z,1.68
2017-12-11T12:36:47.945Z,1.70
2017-12-11T12:42:51.865Z,1.65
2017-12-11T12:48:55.986Z,1.58
2017-12-11T12:54:59.529Z,1.80
2017-12-11T13:01:03.071Z,1.88
2017-12-11T13:07:07.390Z,1.84
2017-12-11T13:13:10.996Z,1.55
2017-12-11T13:19:15.286Z,1.68
2017-12-11T13:25:18.866Z,1.65
2017-12-11T13:31:22.539Z,1.74
2017-12-11T13:37:26.470Z,1.71
2017-12-11T13:43:30.015Z,1.74
2017-12-11T13:49:33.667Z,1.77
2017-12-11T13:55:37.215Z,1.79
2017-12-11T14:01:40.741Z,1.76
2017-12-11T14:07:44.313Z,1.80
2017-12-11T14:13:48.618Z,1.75
2017-12-11T14:19:52.687Z,1.77
2017-12-11T14:25:56.313Z,1.94
2017-12-11T14:31:59.889Z,1.96
2017-12-11T14:38:03.541Z,1.88
2017-12-11T14:44:07.856Z,1.97
2017-12-11T14:50:11.506Z,2.11
2017-12-11T14:56:15.085Z,2.31
2017-12-11T15:02:18.621Z,2.41
2017-12-11T15:08:22.802Z,2.60
2017-12-11T15:14:26.393Z,2.80
2017-12-11T15:20:30.697Z,2.89
2017-12-11T15:26:34.372Z,2.90
2017-12-11T15:32:37.912Z,2.89
2017-12-11T15:38:41.932Z,2.83
2017-12-11T15:44:45.519Z,2.85
2017-12-11T15:50:49.060Z,2.87
2017-12-11T15:56:53.412Z,2.79
2017-12-11T16:02:56.950Z,3.14
2017-12-11T16:09:00.538Z,3.39
2017-12-11T16:15:04.848Z,3.58
2017-12-11T16:21:08.407Z,3.74
2017-12-11T16:27:11.975Z,3.93
2017-12-11T16:33:15.697Z,3.90
2017-12-11T16:39:19.259Z,3.70
2017-12-11T16:45:23.646Z,3.58
2017-12-11T16:51:27.257Z,3.70
2017-12-11T16:57:30.823Z,3.75
2017-12-11T17:03:34.365Z,3.61
2017-12-11T17:09:37.886Z,3.64
2017-12-11T17:15:41.406Z,3.62
2017-12-11T17:21:45.837Z,3.51
2017-12-11T17:27:49.407Z,3.43
2017-12-11T17:33:53.241Z,3.56
2017-12-11T17:39:56.954Z,3.58
2017-12-11T17:46:00.509Z,3.61
2017-12-11T17:52:04.115Z,3.81
2017-12-11T17:58:07.795Z,3.95
2017-12-11T18:04:11.377Z,4.03
2017-12-11T18:10:14.919Z,4.03
2017-12-11T18:16:18.490Z,4.13
2017-12-11T18:22:22.286Z,4.14
2017-12-11T18:28:25.972Z,4.28
2017-12-11T18:34:29.491Z,4.44
2017-12-11T18:40:33.170Z,4.44
2017-12-11T18:46:36.835Z,4.38
2017-12-11T18:52:40.422Z,4.20
2017-12-11T18:58:43.981Z,4.33
2017-12-11T19:04:47.860Z,4.12
2017-12-11T19:10:52.186Z,4.15
2017-12-11T19:16:56.391Z,3.99
2017-12-11T19:23:00.731Z,3.76
2017-12-11T19:29:04.328Z,3.73
2017-12-11T19:35:07.943Z,3.69
2017-12-11T19:41:11.488Z,3.64
2017-12-11T19:47:15.080Z,3.60
2017-12-11T19:53:18.864Z,4.02
2017-12-11T19:59:24.225Z,4.45
2017-12-11T20:05:27.787Z,4.61
2017-12-11T20:11:31.346Z,4.70
2017-12-11T20:17:34.878Z,4.86
2017-12-11T20:23:38.484Z,4.89
2017-12-11T20:29:42.789Z,4.84
2017-12-11T20:35:46.304Z,4.86
2017-12-11T20:41:49.825Z,4.82
2017-12-11T20:47:53.831Z,4.71
2017-12-11T20:53:57.420Z,4.73
2017-12-11T21:00:00.962Z,4.78
2017-12-11T21:06:04.499Z,4.78
2017-12-11T21:12:08.788Z,4.83
2017-12-11T21:18:12.316Z,4.83
2017-12-11T21:24:16.133Z,5.06
2017-12-11T21:30:19.689Z,5.12
2017-12-11T21:36:23.203Z,5.20
2017-12-11T21:42:27.648Z,5.18
2017-12-11T21:48:31.196Z,5.09
2017-12-11T21:54:34.710Z,5.06
2017-12-11T22:00:38.246Z,5.18
2017-12-11T22:06:42.558Z,5.22
2017-12-11T22:12:46.072Z,5.21
2017-12-11T22:18:50.586Z,5.21
2017-12-11T22:24:54.447Z,5.50
2017-12-11T22:30:58.140Z,5.53
2017-12-11T22:37:02.480Z,5.34
2017-12-11T22:43:06.062Z,5.27
2017-12-11T22:49:09.827Z,5.27
2017-12-11T22:55:13.498Z,5.41
2017-12-11T23:01:17.240Z,5.56
2017-12-11T23:07:21.107Z,5.69
2017-12-11T23:13:25.059Z,5.74
2017-12-11T23:19:28.810Z,5.85
2017-12-11T23:25:32.387Z,5.89
2017-12-11T23:31:36.112Z,6.36
2017-12-11T23:37:39.681Z,6.21
2017-12-11T23:43:43.189Z,6.24
2017-12-11T23:49:46.770Z,6.32
2017-12-11T23:55:51.904Z,6.52
